createdAt,value
2022-09-18T00:34:20.156Z,90.60
2022-09-18T01:12:00.815Z,88.31
2022-09-18T01:28:40.615Z,89.53
2022-09-18T01:55:09.796Z,87.63
2022-09-18T02:21:18.088Z,86.63
2022-09-18T02:26:14.433Z,86.70
2022-09-18T02:36:23.177Z,86.98
2022-09-18T02:41:45.924Z,86.87
2022-09-18T02:46:48.282Z,87.70
2022-09-18T02:52:16.124Z,87.49
2022-09-18T02:57:26.761Z,87.05
2022-09-18T03:02:21.121Z,87.28
2022-09-18T03:07:15.861Z,87.88
2022-09-18T03:12:08.703Z,87.76
2022-09-18T03:17:00.394Z,87.37
2022-09-18T03:21:52.818Z,87.90
2022-09-18T03:26:44.505Z,88.27
2022-09-18T03:31:36.315Z,88.43
2022-09-18T03:36:28.042Z,88.38
2022-09-18T03:41:19.774Z,88.38
2022-09-18T03:46:11.491Z,88.50
2022-09-18T03:51:03.372Z,87.71
2022-09-18T04:01:03.366Z,88.69
2022-09-18T04:05:55.822Z,87.72
2022-09-18T04:10:48.520Z,88.41
2022-09-18T04:20:46.187Z,88.06
2022-09-18T04:25:39.825Z,88.34
2022-09-18T04:30:31.790Z,88.39
2022-09-18T04:35:26.603Z,88.58
2022-09-18T04:40:18.755Z,88.40
2022-09-18T04:45:16.693Z,88.53
2022-09-18T04:50:09.298Z,87.87
2022-09-18T04:55:01.125Z,88.03
2022-09-18T04:59:53.583Z,88.12
2022-09-18T05:04:45.288Z,88.63
2022-09-18T05:09:37.409Z,88.47
2022-09-18T05:14:29.242Z,87.83
2022-09-18T05:19:22.056Z,88.38
2022-09-18T05:24:14.194Z,88.35
2022-09-18T05:29:06.977Z,88.31
2022-09-18T05:33:59.491Z,88.06
2022-09-18T05:38:51.694Z,87.17
2022-09-18T05:43:48.495Z,84.86
2022-09-18T05:48:41.026Z,86.04
2022-09-18T05:53:33.565Z,85.16
2022-09-18T06:03:31.166Z,85.55
2022-09-18T06:08:26.889Z,86.10
2022-09-18T06:18:26.136Z,84.96
2022-09-18T06:23:17.994Z,84.56
2022-09-18T06:28:10.173Z,84.67
2022-09-18T06:33:07.852Z,84.36
2022-09-18T06:38:12.600Z,84.02
2022-09-18T06:48:10.632Z,83.84
2022-09-18T06:53:10.053Z,83.85
2022-09-18T06:58:04.370Z,82.63
2022-09-18T07:03:02.191Z,82.01
2022-09-18T07:07:55.415Z,81.84
2022-09-18T07:12:48.937Z,81.30
2022-09-18T07:17:41.370Z,80.74
2022-09-18T07:22:34.772Z,80.63
2022-09-18T07:27:29.152Z,79.84
2022-09-18T07:32:23.457Z,79.04
2022-09-18T07:37:16.879Z,77.71
2022-09-18T07:42:09.583Z,76.56
2022-09-18T07:52:12.245Z,75.36
2022-09-18T08:02:12.988Z,74.20
2022-09-18T08:12:14.518Z,70.69
2022-09-18T08:17:08.018Z,71.24
2022-09-18T08:22:00.818Z,70.46
2022-09-18T08:26:55.649Z,69.89
2022-09-18T08:31:54.901Z,68.35
2022-09-18T08:36:50.752Z,67.18
2022-09-18T08:47:39.858Z,63.52
2022-09-18T08:52:38.472Z,61.14
2022-09-18T08:58:02.324Z,60.15
2022-09-18T09:14:56.249Z,60.05
2022-09-18T09:25:42.838Z,58.16
2022-09-18T09:30:37.488Z,57.31
2022-09-18T09:35:42.205Z,56.25
2022-09-18T09:40:47.575Z,55.26
2022-09-18T09:45:49.018Z,54.90
2022-09-18T09:51:34.237Z,56.25
2022-09-18T09:56:52.937Z,55.71
2022-09-18T10:01:57.724Z,54.69
2022-09-18T10:07:23.659Z,56.62
2022-09-18T10:12:40.244Z,55.89
2022-09-18T10:17:40.299Z,52.55
2022-09-18T10:22:38.051Z,54.46
2022-09-18T10:27:33.627Z,53.46
2022-09-18T10:32:38.926Z,55.17
2022-09-18T10:37:31.159Z,55.09
2022-09-18T10:52:49.060Z,53.00
2022-09-18T10:57:45.482Z,53.11
2022-09-18T11:08:02.124Z,52.97
2022-09-18T11:13:08.655Z,51.65
2022-09-18T11:18:07.995Z,51.72
2022-09-18T11:23:20.854Z,50.23
2022-09-18T11:28:33.412Z,48.86
2022-09-18T11:33:30.274Z,49.16
2022-09-18T11:38:23.459Z,47.87
2022-09-18T11:43:24.146Z,46.90
2022-09-18T11:48:37.712Z,46.62
2022-09-18T12:04:46.198Z,45.34
2022-09-18T12:10:04.125Z,45.41
2022-09-18T12:15:22.941Z,44.35
2022-09-18T12:20:31.433Z,45.60
2022-09-18T12:25:44.060Z,45.14
2022-09-18T12:31:12.323Z,44.47
2022-09-18T12:36:42.064Z,44.92
2022-09-18T12:42:38.589Z,45.56
2022-09-18T12:47:54.931Z,45.18
2022-09-18T12:59:23.614Z,41.96
2022-09-18T13:04:51.141Z,42.89
2022-09-18T13:15:19.797Z,44.84
2022-09-18T13:30:46.961Z,47.63
2022-09-18T13:40:59.474Z,48.62
2022-09-18T13:45:52.650Z,49.44
2022-09-18T13:51:02.849Z,49.86
2022-09-18T13:55:56.040Z,50.60
2022-09-18T14:00:56.214Z,49.49
2022-09-18T14:05:49.877Z,49.71
2022-09-18T14:32:20.465Z,53.21
2022-09-18T15:09:05.300Z,55.84
2022-09-18T15:13:58.017Z,56.92
2022-09-18T15:24:00.157Z,56.88
2022-09-18T15:28:58.606Z,55.24
2022-09-18T15:39:14.721Z,56.29
2022-09-18T16:16:13.700Z,58.73
2022-09-18T16:47:11.127Z,57.55
2022-09-18T16:52:06.418Z,56.44
2022-09-18T17:02:25.933Z,54.75
2022-09-18T17:07:18.433Z,52.96
2022-09-18T17:12:14.090Z,52.99
2022-09-18T17:17:07.023Z,54.47
2022-09-18T17:27:16.038Z,53.90
2022-09-18T17:32:11.891Z,54.98
2022-09-18T17:42:10.710Z,54.96
2022-09-18T17:47:07.509Z,56.50
2022-09-18T17:52:00.182Z,56.50
2022-09-18T18:27:37.245Z,61.69
2022-09-18T18:37:36.938Z,60.68
2022-09-18T18:42:33.312Z,60.04
2022-09-18T18:57:44.463Z,61.79
2022-09-18T19:12:55.613Z,63.80
2022-09-18T19:17:52.440Z,62.72
2022-09-18T19:27:59.626Z,62.01
2022-09-18T19:38:11.714Z,63.75
2022-09-18T19:43:17.282Z,63.01
2022-09-18T19:48:23.701Z,63.76
2022-09-18T19:53:18.606Z,63.77
2022-09-18T19:58:15.331Z,64.12
2022-09-18T20:13:23.201Z,63.91
2022-09-18T20:18:19.808Z,61.67
2022-09-18T20:28:19.297Z,61.00
2022-09-18T20:38:25.544Z,62.34
2022-09-18T20:53:52.671Z,61.36
2022-09-18T20:58:44.825Z,62.05
2022-09-18T21:03:39.030Z,62.77
2022-09-18T21:08:32.823Z,62.88
2022-09-18T21:13:28.292Z,63.48
2022-09-18T21:18:20.408Z,62.82
2022-09-18T21:23:42.354Z,62.57
2022-09-18T21:28:40.887Z,61.38
2022-09-18T21:33:36.532Z,63.02
2022-09-18T21:38:30.548Z,63.71
2022-09-18T21:43:23.851Z,63.13
2022-09-18T21:48:16.352Z,64.72
2022-09-18T21:53:09.934Z,64.05
2022-09-18T21:58:02.885Z,64.12
2022-09-18T22:03:05.499Z,63.95
2022-09-18T22:07:59.051Z,63.77
2022-09-18T22:12:56.439Z,63.83
2022-09-18T22:17:51.981Z,62.91
2022-09-18T22:33:04.369Z,63.76
2022-09-18T22:43:10.238Z,63.21
2022-09-18T22:53:12.159Z,63.77
2022-09-18T22:58:10.131Z,63.26
2022-09-18T23:03:02.010Z,63.82
2022-09-18T23:07:53.679Z,63.60
2022-09-18T23:12:45.372Z,63.44
2022-09-18T23:17:37.065Z,64.53
2022-09-18T23:22:29.124Z,64.69
2022-09-18T23:27:20.925Z,64.54
2022-09-18T23:32:12.681Z,65.24
2022-09-18T23:37:09.149Z,65.05
2022-09-18T23:42:03.620Z,64.86
2022-09-18T23:46:56.809Z,65.79
2022-09-18T23:51:49.665Z,64.89
2022-09-18T23:56:42.750Z,66.28
